Haines, AK

3:54 PM AKST on February 07, 2016 (GMT -0900)
Letnikof Cove | | Change Station
CLOSE
Current Station
Personal Weather Station
Location: Haines, AK
Elevation: 230 ft
Nearby Weather Stations

Elev 230 ft 59.17 °N, 135.39 °W | Updated 1 second ago

Light Snow
Light Snow Mist
32.9 °F
Feels Like 33 °F
N
0.0
Wind Variable Wind from SSE
Gusts 0.0 mph

Today
High -- | Low -- °F
--% Chance of Precip.
Yesterday
High -- | Low -- °F
Precip. -- in
Pressure 30.07 in
Visibility 4.0 miles
Clouds Few 500 ft
Mostly Cloudy 2200 ft
Overcast 2800 ft
Windchill 33 °F
Dew Point 31 °F
Humidity 92%
Rainfall 0.00 in
Snow Depth Not available.
7:58 AM 4:34 PM
Waning Crescent, 0% visible
SPECI PAHN 080028Z AUTO 00000KT 4SM -SN BR FEW005 BKN022 OVC028 M01/M01 A3007 RMK AO2 P0002 T10061011 TSNO $
Pressure 30.07 in
Visibility 4.0 miles
Clouds Few 500 ft
Mostly Cloudy 2200 ft
Overcast 2800 ft
Windchill 33 °F
Dew Point 31 °F
Humidity 92%
Rainfall 0.00 in
Snow Depth Not available.
7:58 AM 4:34 PM
Waning Crescent, 0% visible
SPECI PAHN 080028Z AUTO 00000KT 4SM -SN BR FEW005 BKN022 OVC028 M01/M01 A3007 RMK AO2 P0002 T10061011 TSNO $

10-Day Weather Forecast

Almanac

Astronomy

Feb. 07, 2016 Rise Set
Actual Time
Civil Twilight
Nautical Twilight
Astronomical Twilight
Moon
Length of Visible Light
Length of Day
Tomorrow will be .
, % of the Moon is Illuminated

Today's Extremes

State Highs State Lows

Community

WunderPhotos

Upload Photos

1,891,339 photos uploaded!

WunderBlog® & News

Nearby

Air Quality

  Air Quality AQ Index Pollutant
Not available.

Snow Depth

Station Depth Elevation

Earthquake Activity

City Distance Mag. Time & Date
Minimum magnitude displayed is 2.5.

Coastal Water Temperatures

Place Temperature

Stations

Nearby Weather Stations

Station Location Temp. Windchill Dew Point Humidity Wind Precip. Elev Updated Type
                   

Watches & Warnings

There are currently no watches in effect.